createdAt,value
2022-09-01T00:00:38.395Z,59.60
2022-09-01T00:03:11.040Z,59.74
2022-09-01T00:05:44.626Z,59.63
2022-09-01T00:08:18.466Z,60.17
2022-09-01T00:10:50.971Z,60.24
2022-09-01T00:13:22.868Z,60.29
2022-09-01T00:15:54.762Z,60.70
2022-09-01T00:18:26.809Z,60.89
2022-09-01T00:20:59.790Z,60.71
2022-09-01T00:23:31.767Z,60.66
2022-09-01T00:26:04.355Z,60.79
2022-09-01T00:28:37.774Z,60.76
2022-09-01T00:31:11.247Z,60.91
2022-09-01T00:33:43.324Z,60.83
2022-09-01T00:36:16.809Z,60.99
2022-09-01T00:38:50.037Z,60.86
2022-09-01T00:41:25.175Z,61.06
2022-09-01T00:44:06.036Z,61.33
2022-09-01T00:46:49.500Z,61.72
2022-09-01T00:49:31.651Z,61.73
2022-09-01T00:52:11.359Z,61.44
2022-09-01T00:54:50.466Z,61.96
2022-09-01T00:57:22.900Z,61.33
2022-09-01T00:59:57.694Z,61.61
2022-09-01T01:02:29.780Z,61.35
2022-09-01T01:05:03.205Z,61.52
2022-09-01T01:07:38.933Z,61.28
2022-09-01T01:10:12.299Z,61.40
2022-09-01T01:12:45.226Z,61.33
2022-09-01T01:15:18.440Z,61.52
2022-09-01T01:17:50.425Z,61.55
2022-09-01T01:20:45.057Z,61.87
2022-09-01T01:23:29.650Z,61.71
2022-09-01T01:26:01.606Z,61.55
2022-09-01T01:28:37.169Z,61.65
2022-09-01T01:31:12.687Z,61.65
2022-09-01T01:33:47.243Z,61.58
2022-09-01T01:36:21.588Z,61.52
2022-09-01T01:38:55.570Z,61.33
2022-09-01T01:41:29.965Z,61.52
2022-09-01T01:44:04.278Z,61.51
2022-09-01T01:46:44.058Z,62.03
2022-09-01T01:49:19.931Z,61.52
2022-09-01T01:51:56.400Z,61.63
2022-09-01T01:54:32.368Z,61.74
2022-09-01T01:57:04.705Z,61.84
2022-09-01T01:59:40.450Z,61.78
2022-09-01T02:02:12.966Z,61.93
2022-09-01T02:04:45.023Z,61.84
2022-09-01T02:07:18.098Z,61.79
2022-09-01T02:09:50.162Z,61.93
2022-09-01T02:12:25.142Z,62.03
2022-09-01T02:14:57.333Z,62.17
2022-09-01T02:17:29.665Z,62.11
2022-09-01T02:20:01.722Z,62.17
2022-09-01T02:22:34.133Z,62.24
2022-09-01T02:25:06.987Z,62.27
2022-09-01T02:27:39.874Z,62.56
2022-09-01T02:30:12.861Z,62.61
2022-09-01T02:32:45.562Z,62.38
2022-09-01T02:35:19.952Z,62.55
2022-09-01T02:37:55.599Z,62.68
2022-09-01T02:40:31.335Z,62.84
2022-09-01T02:43:03.280Z,63.35
2022-09-01T02:45:37.267Z,63.57
2022-09-01T02:48:10.481Z,63.47
2022-09-01T02:50:42.829Z,63.80
2022-09-01T02:53:15.492Z,63.70
2022-09-01T02:55:48.706Z,64.09
2022-09-01T02:58:22.910Z,64.05
2022-09-01T03:00:59.115Z,64.26
2022-09-01T03:03:31.376Z,64.26
2022-09-01T03:06:05.097Z,64.16
2022-09-01T03:08:39.630Z,64.25
2022-09-01T03:11:13.249Z,64.40
2022-09-01T03:13:45.833Z,64.29
2022-09-01T03:16:18.983Z,64.26
2022-09-01T03:18:51.981Z,64.46
2022-09-01T03:21:25.080Z,64.49
2022-09-01T03:23:58.140Z,64.57
2022-09-01T03:26:31.459Z,64.61
2022-09-01T03:29:04.265Z,64.36
2022-09-01T03:31:37.248Z,64.66
2022-09-01T03:34:11.077Z,64.68
2022-09-01T03:36:50.868Z,64.55
2022-09-01T03:39:40.824Z,64.79
2022-09-01T03:42:19.430Z,64.56
2022-09-01T03:44:53.294Z,64.74
2022-09-01T03:47:25.457Z,64.84
2022-09-01T03:49:59.910Z,64.81
2022-09-01T03:52:31.838Z,65.13
2022-09-01T03:55:03.918Z,64.83
2022-09-01T03:57:42.425Z,64.96
2022-09-01T04:00:21.000Z,64.94
2022-09-01T04:02:57.586Z,65.45
2022-09-01T04:05:33.908Z,65.38
2022-09-01T04:08:10.877Z,65.70
2022-09-01T04:10:54.465Z,65.81
2022-09-01T04:13:30.396Z,65.50
2022-09-01T04:16:02.776Z,65.41
2022-09-01T04:18:34.981Z,65.60
2022-09-01T04:21:08.111Z,65.68
2022-09-01T04:23:41.047Z,65.51
2022-09-01T04:26:14.888Z,65.44
2022-09-01T04:28:49.470Z,65.61
2022-09-01T04:31:22.108Z,65.51
2022-09-01T04:33:55.658Z,65.70
2022-09-01T04:36:31.710Z,65.67
2022-09-01T04:39:08.813Z,65.76
2022-09-01T04:41:49.358Z,65.74
2022-09-01T04:44:22.228Z,65.74
2022-09-01T04:46:56.738Z,66.03
2022-09-01T04:49:33.731Z,65.89
2022-09-01T04:52:05.904Z,65.85
2022-09-01T04:54:38.959Z,65.78
2022-09-01T04:57:11.526Z,65.84
2022-09-01T04:59:43.655Z,65.96
2022-09-01T05:02:16.984Z,65.90
2022-09-01T05:04:50.054Z,65.78
2022-09-01T05:07:23.634Z,65.91
2022-09-01T05:10:01.099Z,65.79
2022-09-01T05:13:09.882Z,66.05
2022-09-01T05:15:46.584Z,66.13
2022-09-01T05:18:24.568Z,66.13
2022-09-01T05:20:57.556Z,66.35
2022-09-01T05:23:32.034Z,66.29
2022-09-01T05:26:14.633Z,66.27
2022-09-01T05:28:53.980Z,66.66
2022-09-01T05:31:28.186Z,66.29
2022-09-01T05:34:01.879Z,66.25
2022-09-01T05:36:33.997Z,66.32
2022-09-01T05:39:07.690Z,66.28
2022-09-01T05:41:41.083Z,66.22
2022-09-01T05:44:14.132Z,66.14
2022-09-01T05:46:47.533Z,66.16
2022-09-01T05:49:19.736Z,66.13
2022-09-01T05:51:59.015Z,66.07
2022-09-01T05:54:33.886Z,66.29
2022-09-01T05:57:30.191Z,66.20
2022-09-01T05:59:59.774Z,66.44
2022-09-01T06:02:33.797Z,66.30
2022-09-01T06:05:07.174Z,66.21
2022-09-01T06:07:42.736Z,66.25
2022-09-01T06:10:16.100Z,66.01
2022-09-01T06:12:48.832Z,66.20
2022-09-01T06:15:22.836Z,66.28
2022-09-01T06:17:58.789Z,66.31
2022-09-01T06:20:31.717Z,66.22
2022-09-01T06:23:03.679Z,66.18
2022-09-01T06:25:39.505Z,66.40
2022-09-01T06:28:13.573Z,65.83
2022-09-01T06:30:46.393Z,65.70
2022-09-01T06:33:19.411Z,65.60
2022-09-01T06:35:55.587Z,65.46
2022-09-01T06:38:29.392Z,65.69
2022-09-01T06:41:04.377Z,65.57
2022-09-01T06:43:37.002Z,65.69
2022-09-01T06:46:09.836Z,65.22
2022-09-01T06:48:46.558Z,65.33
2022-09-01T06:51:22.581Z,65.38
2022-09-01T06:53:59.394Z,65.08
2022-09-01T06:56:38.923Z,64.80
2022-09-01T06:59:17.923Z,64.63
2022-09-01T07:02:01.424Z,64.44
2022-09-01T07:08:17.887Z,64.11
2022-09-01T07:14:22.252Z,62.95
2022-09-01T07:19:48.776Z,60.61
2022-09-01T07:23:02.631Z,60.23
2022-09-01T07:25:13.413Z,59.51
2022-09-01T07:28:04.023Z,59.23
2022-09-01T07:30:42.690Z,57.76
2022-09-01T07:42:31.370Z,62.17
2022-09-01T07:45:30.218Z,58.23
2022-09-01T07:48:07.365Z,57.16
2022-09-01T07:53:48.249Z,57.79
2022-09-01T07:56:22.097Z,57.52
2022-09-01T07:58:55.672Z,57.58
2022-09-01T08:01:28.952Z,57.09
2022-09-01T08:04:02.320Z,56.76
2022-09-01T08:06:38.623Z,56.31
2022-09-01T08:09:25.176Z,55.12
2022-09-01T08:12:06.257Z,54.89
2022-09-01T08:14:43.871Z,54.41
2022-09-01T08:17:17.182Z,53.72
2022-09-01T08:19:51.059Z,52.94
2022-09-01T08:22:40.460Z,53.25
2022-09-01T08:25:24.788Z,52.71
2022-09-01T08:28:00.551Z,51.92
2022-09-01T08:30:33.177Z,51.58
2022-09-01T08:33:12.931Z,50.83
2022-09-01T08:35:49.842Z,49.92
2022-09-01T08:38:23.423Z,50.01
2022-09-01T08:40:57.801Z,49.63
2022-09-01T08:44:10.837Z,48.68
2022-09-01T08:46:44.001Z,49.01
2022-09-01T08:49:26.252Z,46.93
2022-09-01T08:52:32.601Z,45.16
2022-09-01T08:55:22.235Z,47.28
2022-09-01T08:57:59.859Z,46.83
2022-09-01T09:00:43.647Z,44.35
2022-09-01T09:03:49.689Z,44.72
2022-09-01T09:06:51.417Z,43.49
2022-09-01T09:09:33.486Z,45.10
2022-09-01T09:12:13.428Z,45.21
2022-09-01T09:14:45.321Z,45.77
2022-09-01T09:17:20.883Z,44.21
2022-09-01T09:19:53.773Z,45.08
2022-09-01T09:22:25.750Z,45.07
2022-09-01T09:25:12.644Z,43.50
2022-09-01T09:27:47.705Z,44.78
2022-09-01T09:30:31.430Z,44.77
2022-09-01T09:33:47.654Z,45.43
2022-09-01T09:36:25.366Z,44.29
2022-09-01T09:39:12.658Z,44.52
2022-09-01T09:42:04.295Z,43.34
2022-09-01T09:44:44.142Z,43.17
2022-09-01T09:47:44.723Z,41.29
2022-09-01T09:50:22.998Z,42.64
2022-09-01T09:53:35.928Z,42.87
2022-09-01T09:56:19.581Z,42.81
2022-09-01T09:58:52.667Z,43.37
2022-09-01T10:01:26.065Z,43.61
2022-09-01T10:04:00.540Z,43.40
2022-09-01T10:06:38.312Z,43.42
2022-09-01T10:09:34.922Z,41.94
2022-09-01T10:12:07.070Z,43.06
2022-09-01T10:14:53.386Z,42.65
2022-09-01T10:17:35.975Z,42.47
2022-09-01T10:20:11.646Z,42.79
2022-09-01T10:22:48.398Z,42.68
2022-09-01T10:25:29.473Z,42.35
2022-09-01T10:28:24.324Z,41.96
2022-09-01T10:30:59.069Z,42.62
2022-09-01T10:33:31.291Z,42.66
2022-09-01T10:36:07.853Z,42.05
2022-09-01T10:38:39.961Z,42.20
2022-09-01T10:41:59.833Z,39.57
2022-09-01T10:44:38.995Z,40.40
2022-09-01T10:47:30.382Z,39.99
2022-09-01T10:50:09.919Z,41.23
2022-09-01T10:52:43.304Z,40.94
2022-09-01T10:55:24.970Z,39.71
2022-09-01T10:58:09.535Z,39.80
2022-09-01T11:01:40.297Z,40.24
2022-09-01T11:03:57.170Z,40.06
2022-09-01T11:06:41.696Z,39.47
2022-09-01T11:09:30.523Z,39.03
2022-09-01T11:12:29.288Z,38.67
2022-09-01T11:15:07.056Z,38.97
2022-09-01T11:17:54.420Z,38.95
2022-09-01T11:20:27.768Z,38.71
2022-09-01T11:23:03.739Z,38.07
2022-09-01T11:25:39.640Z,38.59
2022-09-01T11:28:15.426Z,38.05
2022-09-01T11:30:55.169Z,38.08
2022-09-01T11:34:04.486Z,37.05
2022-09-01T11:36:47.240Z,37.76
2022-09-01T11:39:23.236Z,38.23
2022-09-01T11:42:16.713Z,37.15
2022-09-01T11:44:58.997Z,37.03
2022-09-01T11:47:38.177Z,36.01
2022-09-01T11:50:19.173Z,33.31
2022-09-01T11:53:00.121Z,33.02
2022-09-01T11:55:40.103Z,33.66
2022-09-01T11:58:31.825Z,32.42
2022-09-01T12:01:14.635Z,30.08
2022-09-01T12:03:48.784Z,31.08
2022-09-01T12:06:29.748Z,30.06
2022-09-01T12:09:04.933Z,31.66
2022-09-01T12:11:36.957Z,32.20
2022-09-01T12:14:12.030Z,31.77
2022-09-01T12:16:44.519Z,32.05
2022-09-01T12:19:28.606Z,30.35
2022-09-01T12:22:07.609Z,30.72
2022-09-01T12:24:45.686Z,30.35
2022-09-01T12:27:18.262Z,31.25
2022-09-01T12:29:50.988Z,31.11
2022-09-01T12:32:22.918Z,30.09
2022-09-01T12:35:18.185Z,26.53
2022-09-01T12:37:52.744Z,27.77
2022-09-01T12:40:35.120Z,26.08
2022-09-01T12:43:07.874Z,25.91
2022-09-01T12:45:45.719Z,24.23
2022-09-01T12:48:33.478Z,23.10
2022-09-01T12:51:26.543Z,22.48
2022-09-01T12:54:04.743Z,24.02
2022-09-01T12:56:39.124Z,23.33
2022-09-01T12:59:15.803Z,22.69
2022-09-01T13:01:50.967Z,22.67
2022-09-01T13:04:27.209Z,22.20
2022-09-01T13:07:05.464Z,21.35
2022-09-01T13:09:38.349Z,22.14
2022-09-01T13:12:12.585Z,21.17
2022-09-01T13:14:44.550Z,20.93
2022-09-01T13:17:17.008Z,20.76
2022-09-01T13:19:48.969Z,20.71
2022-09-01T13:22:21.700Z,20.65
2022-09-01T13:24:53.650Z,20.71
2022-09-01T13:27:25.733Z,20.53
2022-09-01T13:29:59.514Z,19.82
2022-09-01T13:32:31.957Z,19.47
2022-09-01T13:35:04.694Z,19.57
2022-09-01T13:37:36.678Z,20.35
2022-09-01T13:40:15.683Z,21.17
2022-09-01T13:42:50.725Z,21.12
2022-09-01T13:45:28.644Z,21.07
2022-09-01T13:48:17.314Z,20.72
2022-09-01T13:53:44.951Z,21.20
2022-09-01T13:56:16.915Z,21.68
2022-09-01T13:58:48.878Z,22.03
2022-09-01T14:01:24.243Z,23.09
2022-09-01T14:04:00.184Z,23.62
2022-09-01T14:06:33.269Z,23.76
2022-09-01T14:09:05.223Z,24.55
2022-09-01T14:11:37.680Z,25.01
2022-09-01T14:14:09.761Z,25.71
2022-09-01T14:16:41.955Z,25.70
2022-09-01T14:19:13.946Z,26.23
2022-09-01T14:21:47.298Z,27.19
2022-09-01T14:24:21.131Z,27.78
2022-09-01T14:26:53.605Z,28.19
2022-09-01T14:29:25.662Z,28.52
2022-09-01T14:31:58.579Z,29.26
2022-09-01T14:34:30.994Z,29.33
2022-09-01T14:37:04.073Z,29.90
2022-09-01T14:39:36.001Z,30.58
2022-09-01T14:42:10.068Z,30.29
2022-09-01T14:44:43.609Z,30.96
2022-09-01T14:47:19.892Z,30.79
2022-09-01T14:49:53.839Z,31.33
2022-09-01T14:52:25.868Z,31.42
2022-09-01T14:54:59.487Z,31.75
2022-09-01T14:57:37.789Z,31.92
2022-09-01T15:00:12.450Z,32.67
2022-09-01T15:02:45.302Z,32.62
2022-09-01T15:05:17.244Z,33.19
2022-09-01T15:07:49.995Z,33.24
2022-09-01T15:10:25.848Z,33.56
2022-09-01T15:13:00.213Z,33.98
2022-09-01T15:15:32.986Z,34.14
2022-09-01T15:18:05.109Z,34.49
2022-09-01T15:20:48.497Z,34.59
2022-09-01T15:23:25.857Z,34.92
2022-09-01T15:25:58.403Z,34.88
2022-09-01T15:28:30.604Z,34.85
2022-09-01T15:31:03.683Z,35.61
2022-09-01T15:33:36.494Z,35.40
2022-09-01T15:36:16.035Z,35.72
2022-09-01T15:38:48.056Z,35.84
2022-09-01T15:41:22.125Z,36.07
2022-09-01T15:43:54.093Z,36.19
2022-09-01T15:46:32.017Z,36.28
2022-09-01T15:49:06.608Z,36.74
2022-09-01T15:51:45.561Z,37.60
2022-09-01T15:54:19.931Z,36.81
2022-09-01T15:56:51.813Z,37.10
2022-09-01T15:59:23.859Z,37.46
2022-09-01T16:01:56.252Z,37.68
2022-09-01T16:04:28.392Z,37.50
2022-09-01T16:07:00.622Z,37.64
2022-09-01T16:09:32.986Z,37.69
2022-09-01T16:12:06.524Z,37.58
2022-09-01T16:14:40.501Z,38.00
2022-09-01T16:17:20.508Z,38.61
2022-09-01T16:19:56.516Z,38.12
2022-09-01T16:22:37.013Z,38.47
2022-09-01T16:25:22.919Z,39.00
2022-09-01T16:27:56.237Z,38.81
2022-09-01T16:30:30.560Z,39.01
2022-09-01T16:33:04.288Z,39.23
2022-09-01T16:36:19.209Z,39.83
2022-09-01T16:39:01.397Z,39.67
2022-09-01T16:41:45.235Z,40.11
2022-09-01T16:44:17.326Z,39.40
2022-09-01T16:47:02.630Z,39.88
2022-09-01T16:49:48.392Z,40.19
2022-09-01T16:52:31.219Z,40.28
2022-09-01T16:55:32.751Z,40.95
2022-09-01T16:58:26.046Z,40.02
2022-09-01T17:01:30.255Z,40.42
2022-09-01T17:04:02.242Z,40.29
2022-09-01T17:06:48.436Z,40.50
2022-09-01T17:09:54.089Z,41.17
2022-09-01T17:12:32.106Z,40.52
2022-09-01T17:15:12.898Z,40.33
2022-09-01T17:18:05.365Z,40.23
2022-09-01T17:20:42.035Z,40.14
2022-09-01T17:23:30.025Z,40.19
2022-09-01T17:26:05.725Z,40.32
2022-09-01T17:28:55.343Z,40.32
2022-09-01T17:31:49.311Z,40.27
2022-09-01T17:34:46.945Z,40.86
2022-09-01T17:37:40.019Z,40.57
2022-09-01T17:40:23.874Z,41.09
2022-09-01T17:43:06.233Z,41.27
2022-09-01T17:45:45.755Z,41.13
2022-09-01T17:48:31.333Z,42.54
2022-09-01T17:51:09.000Z,42.16
2022-09-01T17:53:53.852Z,41.65
2022-09-01T17:56:46.725Z,41.89
2022-09-01T17:59:34.014Z,41.99
2022-09-01T18:02:24.727Z,42.78
2022-09-01T18:05:05.927Z,41.86
2022-09-01T18:08:00.291Z,41.77
2022-09-01T18:10:44.560Z,41.76
2022-09-01T18:13:51.898Z,41.61
2022-09-01T18:16:32.043Z,42.34
2022-09-01T18:19:11.830Z,42.60
2022-09-01T18:22:01.729Z,43.23
2022-09-01T18:24:52.134Z,43.22
2022-09-01T18:27:26.081Z,42.94
2022-09-01T18:30:01.294Z,42.76
2022-09-01T18:32:41.376Z,42.90
2022-09-01T18:35:29.047Z,43.45
2022-09-01T18:38:16.094Z,43.71
2022-09-01T18:41:08.193Z,44.03
2022-09-01T18:43:45.448Z,43.69
2022-09-01T18:46:25.417Z,44.11
2022-09-01T18:49:35.177Z,44.16
2022-09-01T18:52:37.113Z,43.75
2022-09-01T18:55:34.773Z,43.70
2022-09-01T18:58:12.500Z,44.07
2022-09-01T19:00:54.677Z,44.12
2022-09-01T19:03:35.142Z,44.22
2022-09-01T19:06:33.169Z,44.48
2022-09-01T19:09:14.495Z,44.38
2022-09-01T19:11:46.467Z,44.33
2022-09-01T19:14:33.552Z,44.61
2022-09-01T19:17:25.827Z,45.14
2022-09-01T19:20:03.057Z,44.90
2022-09-01T19:22:56.492Z,45.14
2022-09-01T19:25:38.095Z,44.87
2022-09-01T19:28:25.165Z,45.55
2022-09-01T19:31:07.336Z,45.13
2022-09-01T19:33:43.154Z,45.34
2022-09-01T19:36:25.650Z,46.14
2022-09-01T19:38:58.419Z,45.51
2022-09-01T19:41:35.319Z,45.97
2022-09-01T19:44:57.570Z,47.10
2022-09-01T19:47:38.266Z,46.18
2022-09-01T19:50:31.166Z,47.26
2022-09-01T19:53:26.489Z,47.13
2022-09-01T19:56:21.705Z,46.69
2022-09-01T19:59:19.145Z,47.60
2022-09-01T20:01:57.660Z,47.26
2022-09-01T20:04:47.648Z,47.93
2022-09-01T20:07:31.799Z,48.20
2022-09-01T20:10:29.460Z,48.85
2022-09-01T20:13:16.315Z,48.49
2022-09-01T20:15:53.712Z,49.20
2022-09-01T20:18:39.186Z,50.19
2022-09-01T20:21:20.882Z,49.13
2022-09-01T20:23:58.366Z,49.48
2022-09-01T20:26:32.700Z,50.06
2022-09-01T20:29:12.876Z,51.14
2022-09-01T20:31:46.747Z,50.65
2022-09-01T20:34:25.228Z,51.02
2022-09-01T20:37:10.595Z,52.40
2022-09-01T20:40:27.050Z,51.92
2022-09-01T20:43:22.849Z,51.86
2022-09-01T20:45:54.997Z,51.12
2022-09-01T20:48:27.858Z,51.19
2022-09-01T20:51:11.725Z,52.85
2022-09-01T20:54:21.331Z,53.24
2022-09-01T20:57:21.339Z,54.10
2022-09-01T20:59:59.041Z,53.16
2022-09-01T21:02:43.051Z,53.03
2022-09-01T21:05:21.236Z,53.46
2022-09-01T21:08:20.934Z,53.84
2022-09-01T21:11:20.252Z,53.54
2022-09-01T21:14:05.069Z,53.29
2022-09-01T21:16:56.669Z,54.08
2022-09-01T21:19:53.597Z,54.24
2022-09-01T21:22:27.717Z,53.51
2022-09-01T21:24:59.823Z,53.53
2022-09-01T21:27:37.543Z,53.84
2022-09-01T21:30:12.282Z,54.04
2022-09-01T21:32:44.398Z,53.63
2022-09-01T21:35:19.471Z,54.06
2022-09-01T21:37:51.831Z,53.99
2022-09-01T21:40:26.598Z,54.32
2022-09-01T21:43:04.457Z,55.37
2022-09-01T21:45:37.988Z,54.63
2022-09-01T21:48:10.076Z,54.57
2022-09-01T21:50:42.447Z,55.20
2022-09-01T21:53:14.611Z,55.31
2022-09-01T21:55:46.925Z,55.35
2022-09-01T21:58:18.829Z,55.29
2022-09-01T22:00:51.222Z,55.15
2022-09-01T22:03:24.210Z,55.43
2022-09-01T22:05:56.063Z,55.56
2022-09-01T22:08:28.330Z,55.57
2022-09-01T22:11:00.573Z,56.02
2022-09-01T22:13:32.602Z,56.23
2022-09-01T22:16:05.041Z,56.07
2022-09-01T22:18:36.905Z,55.99
2022-09-01T22:21:10.018Z,56.21
2022-09-01T22:23:42.728Z,56.02
2022-09-01T22:26:28.292Z,57.14
2022-09-01T22:29:02.207Z,56.06
2022-09-01T22:31:37.073Z,56.37
2022-09-01T22:34:09.039Z,56.28
2022-09-01T22:36:44.329Z,56.63
2022-09-01T22:39:17.525Z,56.19
2022-09-01T22:41:49.441Z,56.25
2022-09-01T22:44:21.855Z,56.26
2022-09-01T22:46:53.791Z,56.43
2022-09-01T22:49:25.771Z,56.40
2022-09-01T22:51:57.669Z,56.34
2022-09-01T22:54:29.939Z,56.46
2022-09-01T22:57:02.345Z,56.40
2022-09-01T22:59:34.325Z,56.33
2022-09-01T23:02:07.027Z,56.65
2022-09-01T23:04:40.828Z,56.58
2022-09-01T23:07:12.783Z,56.69
2022-09-01T23:09:44.659Z,56.73
2022-09-01T23:12:16.635Z,56.73
2022-09-01T23:14:48.573Z,57.08
2022-09-01T23:17:20.400Z,56.83
2022-09-01T23:19:52.673Z,56.73
2022-09-01T23:22:24.658Z,57.10
2022-09-01T23:24:56.505Z,56.89
2022-09-01T23:27:28.309Z,56.83
2022-09-01T23:30:00.283Z,56.99
2022-09-01T23:32:32.257Z,57.07
2022-09-01T23:35:05.045Z,57.19
2022-09-01T23:37:37.171Z,57.28
2022-09-01T23:40:10.400Z,57.32
2022-09-01T23:42:42.845Z,57.30
2022-09-01T23:45:14.775Z,57.60
2022-09-01T23:47:46.641Z,57.69
2022-09-01T23:50:18.475Z,57.63
2022-09-01T23:52:51.085Z,57.82
2022-09-01T23:55:23.025Z,57.77
2022-09-01T23:57:54.886Z,58.24
